Time;durP1;ratioP1;P1;durP2;ratioP2;P2;SDS_P1;SDS_P2;PMS_P1;PMS_P2;Temp;Humidity;BMP_temperature;BMP_pressure;BME280_temperature;BME280_humidity;BME280_pressure;Samples;Min_cycle;Max_cycle;Signal;HPM_P1;HPM_P2
2022/12/12 00:00:09;;;;;;;20.77;12.03;;;11.20;52.00;;;;;;5052665;28;20446;-80
2022/12/12 00:02:37;;;;;;;19.33;12.17;;;11.20;52.00;;;;;;5045083;28;20463;-79
2022/12/12 00:05:07;;;;;;;19.97;12.17;;;11.20;52.00;;;;;;5050725;28;20516;-80
2022/12/12 00:07:36;;;;;;;19.17;11.77;;;11.20;51.90;;;;;;5052058;28;20474;-80
2022/12/12 00:10:06;;;;;;;20.50;11.63;;;11.20;51.90;;;;;;5052535;28;20516;-79
2022/12/12 00:12:34;;;;;;;20.33;11.70;;;11.10;51.80;;;;;;5046301;28;20446;-78
2022/12/12 00:15:02;;;;;;;19.40;11.33;;;11.20;52.00;;;;;;5047706;28;20450;-81
2022/12/12 00:17:30;;;;;;;17.70;10.90;;;11.10;51.80;;;;;;5052190;28;20539;-80
2022/12/12 00:19:58;;;;;;;22.13;12.50;;;11.10;51.80;;;;;;5053715;28;20473;-80
2022/12/12 00:22:26;;;;;;;21.60;12.40;;;11.10;51.70;;;;;;5052895;28;20462;-80
2022/12/12 00:24:54;;;;;;;20.87;11.90;;;11.10;51.80;;;;;;5042478;28;20458;-80
2022/12/12 00:27:23;;;;;;;17.83;11.00;;;11.10;51.70;;;;;;5055600;28;20465;-80
2022/12/12 00:29:52;;;;;;;20.93;11.20;;;11.10;51.70;;;;;;5050050;28;20467;-81
2022/12/12 00:32:19;;;;;;;20.73;11.53;;;11.10;51.70;;;;;;5050309;28;20452;-81
2022/12/12 00:34:47;;;;;;;17.43;10.67;;;11.10;51.90;;;;;;5053911;28;20447;-80
2022/12/12 00:37:15;;;;;;;17.47;10.90;;;11.10;51.80;;;;;;5052097;28;20470;-80
2022/12/12 00:39:43;;;;;;;19.17;11.07;;;11.10;51.80;;;;;;5048563;28;20455;-80
2022/12/12 00:42:11;;;;;;;19.00;11.13;;;11.00;51.70;;;;;;5049734;28;20469;-80
2022/12/12 00:44:40;;;;;;;17.70;10.00;;;11.00;51.80;;;;;;5045838;28;20506;-79
2022/12/12 00:47:08;;;;;;;19.40;11.03;;;11.00;51.80;;;;;;5049598;28;20451;-79
2022/12/12 00:49:36;;;;;;;18.17;11.53;;;11.00;51.70;;;;;;5059369;28;20449;-79
2022/12/12 00:52:04;;;;;;;18.10;10.77;;;11.00;51.70;;;;;;5050757;28;20449;-79
2022/12/12 00:54:32;;;;;;;20.07;11.13;;;11.00;51.80;;;;;;5049874;28;20451;-80
2022/12/12 00:57:00;;;;;;;19.00;11.23;;;11.00;51.70;;;;;;5050278;28;20459;-79
2022/12/12 00:59:28;;;;;;;19.27;11.27;;;10.90;51.70;;;;;;5047136;28;20453;-79
2022/12/12 01:01:57;;;;;;;21.90;11.67;;;10.90;51.60;;;;;;5049668;28;20824;-80
2022/12/12 01:04:25;;;;;;;18.87;10.93;;;10.90;51.60;;;;;;5049365;28;20539;-80
2022/12/12 01:06:53;;;;;;;20.33;11.20;;;10.90;51.60;;;;;;5051566;28;20485;-80
2022/12/12 01:09:21;;;;;;;18.10;10.03;;;10.90;51.60;;;;;;5052812;28;20445;-80
2022/12/12 01:11:48;;;;;;;17.33;10.57;;;10.90;51.60;;;;;;5046911;28;20478;-80
2022/12/12 01:14:17;;;;;;;17.47;10.13;;;10.90;51.60;;;;;;5052872;28;20461;-80
2022/12/12 01:16:45;;;;;;;16.40;10.50;;;10.90;51.40;;;;;;5044087;28;20451;-80
2022/12/12 01:19:17;;;;;;;19.67;11.23;;;10.90;51.60;;;;;;5050980;28;20474;-79
2022/12/12 01:21:45;;;;;;;18.40;10.87;;;10.90;51.50;;;;;;5047061;28;20454;-79
2022/12/12 01:24:13;;;;;;;17.20;10.30;;;10.90;51.60;;;;;;5051241;28;20446;-80
2022/12/12 01:26:42;;;;;;;17.93;10.93;;;10.90;51.50;;;;;;5053923;28;20451;-79
2022/12/12 01:29:10;;;;;;;19.50;10.30;;;10.90;51.70;;;;;;5050723;28;20477;-80
2022/12/12 01:31:38;;;;;;;16.77;9.77;;;10.90;51.60;;;;;;5052803;28;20477;-80
2022/12/12 01:34:06;;;;;;;18.43;10.70;;;10.90;51.70;;;;;;5047048;28;20450;-79
2022/12/12 01:36:35;;;;;;;17.37;10.80;;;10.90;51.70;;;;;;5042916;28;20458;-80
2022/12/12 01:39:04;;;;;;;16.20;10.53;;;10.80;52.10;;;;;;5048965;28;20481;-80
2022/12/12 01:41:33;;;;;;;18.60;9.87;;;10.80;51.70;;;;;;5053891;28;20451;-80
2022/12/12 01:44:01;;;;;;;17.63;10.37;;;10.80;51.70;;;;;;5051632;28;20460;-79
2022/12/12 01:46:38;;;;;;;14.50;9.53;;;10.80;51.70;;;;;;5057721;28;20458;-79
2022/12/12 01:49:18;;;;;;;18.43;10.30;;;10.80;51.60;;;;;;5049846;28;20501;-79
2022/12/12 01:51:47;;;;;;;16.67;10.40;;;10.80;51.80;;;;;;5050689;28;20485;-79
2022/12/12 01:54:17;;;;;;;19.60;10.10;;;10.80;51.70;;;;;;5061144;28;20458;-79
2022/12/12 01:56:45;;;;;;;17.37;9.77;;;10.80;51.80;;;;;;5047235;28;20456;-79
2022/12/12 01:59:14;;;;;;;20.33;10.20;;;10.80;51.80;;;;;;5056861;28;20992;-81
2022/12/12 02:01:42;;;;;;;14.87;10.10;;;10.80;51.70;;;;;;5059834;28;20450;-78
2022/12/12 02:04:10;;;;;;;17.23;10.03;;;10.80;51.70;;;;;;5066209;28;20439;-80
2022/12/12 02:06:38;;;;;;;18.47;9.97;;;10.80;51.90;;;;;;5063636;28;20451;-80
2022/12/12 02:09:09;;;;;;;19.23;10.10;;;10.80;51.70;;;;;;5060671;28;20462;-79
2022/12/12 02:11:41;;;;;;;15.93;9.73;;;10.80;51.80;;;;;;5059878;28;20475;-79
2022/12/12 02:14:09;;;;;;;18.90;10.40;;;10.80;51.70;;;;;;5058890;28;20458;-79
2022/12/12 02:16:53;;;;;;;16.87;9.80;;;10.80;51.80;;;;;;5060646;28;20453;-80
2022/12/12 02:19:42;;;;;;;18.47;10.40;;;10.80;51.70;;;;;;5061915;28;20458;-79
2022/12/12 02:22:13;;;;;;;17.47;10.23;;;10.80;51.70;;;;;;5017996;28;20454;-79
2022/12/12 02:24:58;;;;;;;18.80;9.90;;;10.80;51.80;;;;;;5051701;28;20496;-79
2022/12/12 02:27:37;;;;;;;16.80;9.90;;;10.70;51.50;;;;;;5059645;28;20473;-80
2022/12/12 02:30:10;;;;;;;17.87;9.67;;;10.70;51.60;;;;;;5056548;28;20446;-80
2022/12/12 02:32:51;;;;;;;17.50;10.03;;;10.70;51.50;;;;;;5056289;28;20450;-80
2022/12/12 02:35:21;;;;;;;17.93;10.30;;;10.70;51.40;;;;;;5059471;28;20452;-80
2022/12/12 02:37:51;;;;;;;18.10;10.53;;;10.70;51.50;;;;;;5049790;28;20470;-80
2022/12/12 02:40:22;;;;;;;19.17;10.80;;;10.70;51.30;;;;;;5060513;28;20451;-80
2022/12/12 02:42:54;;;;;;;19.60;11.23;;;10.70;51.40;;;;;;5055558;28;20452;-79
2022/12/12 02:45:33;;;;;;;18.00;9.90;;;10.60;51.30;;;;;;5059251;28;20450;-81
2022/12/12 02:48:05;;;;;;;18.63;10.30;;;10.60;51.30;;;;;;5052575;28;20474;-80
2022/12/12 02:50:33;;;;;;;17.23;9.87;;;10.60;51.30;;;;;;5053888;28;20454;-80
2022/12/12 02:53:01;;;;;;;18.10;9.73;;;10.60;51.30;;;;;;5063416;28;20460;-80
2022/12/12 02:55:29;;;;;;;16.53;9.80;;;10.60;51.40;;;;;;5065746;28;20973;-79
2022/12/12 02:58:03;;;;;;;18.97;9.70;;;10.60;51.30;;;;;;5064205;28;20486;-81
2022/12/12 03:00:33;;;;;;;16.27;10.10;;;10.60;51.20;;;;;;5059551;28;20435;-80
2022/12/12 03:08:52;;;;;;;19.90;10.27;;;10.60;51.20;;;;;;5066690;28;20454;-81
2022/12/12 03:11:25;;;;;;;19.87;10.07;;;10.60;51.20;;;;;;5061948;28;20467;-80
2022/12/12 03:13:56;;;;;;;17.10;9.80;;;10.50;51.10;;;;;;5064464;28;20481;-79
2022/12/12 03:16:26;;;;;;;18.33;9.93;;;10.50;51.00;;;;;;5062866;28;20473;-79
2022/12/12 03:18:58;;;;;;;21.00;10.40;;;10.50;51.00;;;;;;5057465;28;20543;-79
2022/12/12 03:21:29;;;;;;;19.27;10.27;;;10.50;51.00;;;;;;5062177;28;20434;-78
2022/12/12 03:23:59;;;;;;;19.53;10.17;;;10.50;50.90;;;;;;5063149;28;20423;-79
2022/12/12 03:26:28;;;;;;;15.17;9.23;;;10.50;51.00;;;;;;5055665;28;20431;-79
2022/12/12 03:28:59;;;;;;;17.10;9.60;;;10.50;50.90;;;;;;5066917;28;20438;-80
2022/12/12 03:31:28;;;;;;;15.70;9.60;;;10.50;50.90;;;;;;5060083;28;20463;-81
2022/12/12 03:33:58;;;;;;;17.50;9.37;;;10.40;50.90;;;;;;5060263;28;20431;-81
2022/12/12 03:36:28;;;;;;;16.27;9.30;;;10.40;51.00;;;;;;5057924;28;20427;-80
2022/12/12 03:38:57;;;;;;;16.63;9.30;;;10.40;51.00;;;;;;5051485;28;20471;-80
2022/12/12 03:41:27;;;;;;;14.97;9.37;;;10.40;50.90;;;;;;5058232;28;20427;-80
2022/12/12 03:43:56;;;;;;;17.43;9.90;;;10.40;51.00;;;;;;5065039;28;20435;-80
2022/12/12 03:46:26;;;;;;;16.73;9.07;;;10.40;51.10;;;;;;5047068;28;20435;-80
2022/12/12 03:48:57;;;;;;;14.33;9.23;;;10.40;50.90;;;;;;5050308;28;20450;-80
2022/12/12 03:51:27;;;;;;;15.30;8.57;;;10.40;50.90;;;;;;5054374;28;20474;-81
2022/12/12 03:53:56;;;;;;;13.90;8.80;;;10.40;51.60;;;;;;5049027;28;20443;-80
2022/12/12 03:56:27;;;;;;;17.93;9.87;;;10.40;51.00;;;;;;5041478;28;20462;-80
2022/12/12 03:58:56;;;;;;;16.00;9.50;;;10.40;51.00;;;;;;5053442;28;20469;-80
2022/12/12 04:01:28;;;;;;;20.60;10.03;;;10.40;51.10;;;;;;5052442;28;20443;-81
2022/12/12 04:04:00;;;;;;;13.83;9.07;;;10.40;51.00;;;;;;5043633;28;20817;-80
2022/12/12 04:06:31;;;;;;;16.00;9.10;;;10.40;51.10;;;;;;5044305;28;20431;-80
2022/12/12 04:14:51;;;;;;;16.63;8.80;;;10.50;51.30;;;;;;5052719;28;20438;-80
2022/12/12 04:17:21;;;;;;;16.20;8.90;;;10.40;51.30;;;;;;5049018;28;20466;-80
2022/12/12 04:25:32;;;;;;;14.30;8.50;;;10.50;51.50;;;;;;5040135;28;20443;-80
2022/12/12 04:28:02;;;;;;;15.10;8.97;;;10.40;51.60;;;;;;5051091;28;20482;-80
2022/12/12 04:30:30;;;;;;;13.53;8.70;;;10.40;51.60;;;;;;5052545;28;20457;-78
2022/12/12 04:33:01;;;;;;;14.90;8.47;;;10.40;51.50;;;;;;5055200;28;20482;-79
2022/12/12 04:35:31;;;;;;;15.63;9.10;;;10.50;51.60;;;;;;5050532;28;20462;-79
2022/12/12 04:38:02;;;;;;;14.63;8.63;;;10.50;51.60;;;;;;5053540;28;20493;-80
2022/12/12 04:40:31;;;;;;;15.40;8.60;;;10.50;51.80;;;;;;5048607;28;20454;-79
2022/12/12 04:43:00;;;;;;;14.70;8.60;;;10.50;51.80;;;;;;5050346;28;20446;-81
2022/12/12 04:45:30;;;;;;;13.63;8.60;;;10.50;51.80;;;;;;5053138;28;20454;-79
2022/12/12 04:47:59;;;;;;;17.60;9.40;;;10.50;51.70;;;;;;5050466;28;20470;-79
2022/12/12 04:50:28;;;;;;;15.70;9.13;;;10.50;51.60;;;;;;5051874;28;20447;-80
2022/12/12 04:52:57;;;;;;;14.40;8.37;;;10.50;51.80;;;;;;5053600;28;20865;-79
2022/12/12 04:55:27;;;;;;;14.03;8.20;;;10.50;51.80;;;;;;5049293;28;20481;-79
2022/12/12 04:57:56;;;;;;;13.90;8.70;;;10.50;51.80;;;;;;5053592;28;20474;-80
2022/12/12 05:00:24;;;;;;;14.13;8.63;;;10.50;51.70;;;;;;5054544;28;20461;-79
2022/12/12 05:02:55;;;;;;;17.10;9.03;;;10.50;51.70;;;;;;5049453;28;20447;-79
2022/12/12 05:05:26;;;;;;;14.60;8.83;;;10.40;51.70;;;;;;5053261;28;20451;-80
2022/12/12 05:07:57;;;;;;;13.10;8.13;;;10.40;51.60;;;;;;5050535;28;20474;-79
2022/12/12 05:10:25;;;;;;;14.37;8.30;;;10.40;51.80;;;;;;5050413;28;20489;-80
2022/12/12 05:12:57;;;;;;;15.03;8.47;;;10.40;51.90;;;;;;5061174;28;20478;-81
2022/12/12 05:15:25;;;;;;;15.23;8.23;;;10.40;51.80;;;;;;5049498;28;20471;-79
2022/12/12 05:17:56;;;;;;;13.93;7.93;;;10.50;51.80;;;;;;5055385;28;20482;-80
2022/12/12 05:20:24;;;;;;;14.07;8.37;;;10.50;51.80;;;;;;5051614;28;20450;-80
2022/12/12 05:22:53;;;;;;;14.40;8.50;;;10.50;51.80;;;;;;5051429;28;20482;-79
2022/12/12 05:25:24;;;;;;;13.63;8.20;;;10.40;51.70;;;;;;5053581;28;20453;-80
2022/12/12 05:27:52;;;;;;;11.70;7.87;;;10.40;51.80;;;;;;5056723;28;20481;-80
2022/12/12 05:30:20;;;;;;;13.97;8.37;;;10.40;51.80;;;;;;5057175;28;20453;-79
2022/12/12 05:32:48;;;;;;;17.03;9.00;;;10.40;51.90;;;;;;5052092;28;20460;-79
2022/12/12 05:35:16;;;;;;;15.20;8.53;;;10.40;51.90;;;;;;5058529;28;20450;-80
2022/12/12 05:37:44;;;;;;;14.73;8.20;;;10.40;51.80;;;;;;5051351;28;20475;-81
2022/12/12 05:40:19;;;;;;;13.77;7.97;;;10.40;51.70;;;;;;5050240;28;20450;-80
2022/12/12 05:42:49;;;;;;;11.50;7.70;;;10.40;51.60;;;;;;5049848;28;20567;-80
2022/12/12 05:45:16;;;;;;;12.90;8.20;;;10.40;51.70;;;;;;5052517;28;20461;-80
2022/12/12 05:47:44;;;;;;;13.17;7.80;;;10.40;51.70;;;;;;5055839;28;20475;-80
2022/12/12 05:50:13;;;;;;;13.30;7.90;;;10.40;51.60;;;;;;5058330;28;20460;-80
2022/12/12 05:52:41;;;;;;;13.87;7.67;;;10.40;51.50;;;;;;5058980;28;20474;-80
2022/12/12 05:55:10;;;;;;;18.23;8.97;;;10.30;51.50;;;;;;5058097;28;20454;-80
2022/12/12 05:57:38;;;;;;;11.50;7.30;;;10.30;51.30;;;;;;5052215;28;20482;-80
2022/12/12 06:00:09;;;;;;;13.30;7.40;;;10.30;51.40;;;;;;5060184;28;20454;-80
2022/12/12 06:02:37;;;;;;;14.60;7.67;;;10.30;51.50;;;;;;5059163;28;20457;-80
2022/12/12 06:05:06;;;;;;;12.40;7.57;;;10.30;51.40;;;;;;5061272;28;20455;-80
2022/12/12 06:07:34;;;;;;;11.13;8.33;;;10.30;51.30;;;;;;5060887;28;20480;-80
2022/12/12 06:10:03;;;;;;;14.10;7.80;;;10.20;51.30;;;;;;5053798;28;20454;-80
2022/12/12 06:12:31;;;;;;;13.47;7.20;;;10.20;51.20;;;;;;5061548;28;20551;-81
2022/12/12 06:15:00;;;;;;;14.10;8.27;;;10.20;51.10;;;;;;5060533;28;20451;-80
2022/12/12 06:17:31;;;;;;;13.87;8.60;;;10.20;51.20;;;;;;5055314;28;20565;-80
2022/12/12 06:20:02;;;;;;;13.90;8.53;;;10.20;51.00;;;;;;5061057;28;20458;-80
2022/12/12 06:22:31;;;;;;;13.07;8.30;;;10.20;51.10;;;;;;5057780;28;20462;-79
2022/12/12 06:24:59;;;;;;;15.23;8.23;;;10.20;51.10;;;;;;5057090;28;20549;-80
2022/12/12 06:27:27;;;;;;;16.03;9.00;;;10.20;51.00;;;;;;5051195;28;20478;-80
2022/12/12 06:29:55;;;;;;;13.03;8.43;;;10.20;51.00;;;;;;5058012;28;20465;-80
2022/12/12 06:32:24;;;;;;;13.33;7.83;;;10.10;50.90;;;;;;5057996;28;20454;-81
2022/12/12 06:34:53;;;;;;;13.30;8.37;;;10.20;51.00;;;;;;5052855;28;20450;-80
2022/12/12 06:37:20;;;;;;;14.70;8.23;;;10.20;50.80;;;;;;5050877;28;20478;-81
2022/12/12 06:39:48;;;;;;;11.93;7.30;;;10.10;50.80;;;;;;5055197;28;20976;-80
2022/12/12 06:42:17;;;;;;;12.87;7.97;;;10.10;50.80;;;;;;5057279;28;20459;-81
2022/12/12 06:44:45;;;;;;;15.07;8.87;;;10.10;50.80;;;;;;5049383;28;20456;-80
2022/12/12 06:47:13;;;;;;;13.50;8.13;;;10.10;50.80;;;;;;5061360;28;20458;-80
2022/12/12 06:49:41;;;;;;;13.97;8.03;;;10.10;50.60;;;;;;5052727;28;20454;-80
2022/12/12 06:52:11;;;;;;;15.03;7.93;;;10.10;50.60;;;;;;5049597;28;20450;-80
2022/12/12 06:54:39;;;;;;;11.63;7.43;;;10.10;50.70;;;;;;5047783;28;20477;-80
2022/12/12 06:57:07;;;;;;;15.00;7.87;;;10.00;50.50;;;;;;5059827;28;20458;-79
2022/12/12 06:59:36;;;;;;;14.20;8.07;;;10.00;50.60;;;;;;5056144;28;20451;-80
2022/12/12 07:02:04;;;;;;;12.93;7.53;;;10.00;50.40;;;;;;5056744;28;20816;-80
2022/12/12 07:04:32;;;;;;;13.23;7.90;;;10.00;50.50;;;;;;5048951;28;20481;-81
2022/12/12 07:07:00;;;;;;;15.53;8.07;;;10.00;50.50;;;;;;5050720;28;20462;-81
2022/12/12 07:09:29;;;;;;;11.17;7.17;;;10.00;50.30;;;;;;5047768;28;20457;-81
2022/12/12 07:11:57;;;;;;;11.70;7.67;;;10.00;50.40;;;;;;5052215;28;20452;-80
2022/12/12 07:14:25;;;;;;;12.90;7.80;;;10.00;50.40;;;;;;5051837;28;20466;-81
2022/12/12 07:16:53;;;;;;;12.40;7.40;;;10.00;50.40;;;;;;5052652;28;20458;-79
2022/12/12 07:19:22;;;;;;;15.70;8.63;;;10.00;50.40;;;;;;5049099;28;20518;-81
2022/12/12 07:21:50;;;;;;;14.33;7.90;;;9.90;51.10;;;;;;5051683;28;20959;-81
2022/12/12 07:24:19;;;;;;;14.23;8.47;;;9.90;51.20;;;;;;5049680;28;20451;-80
2022/12/12 07:26:48;;;;;;;16.00;8.23;;;9.90;51.20;;;;;;5050292;28;20448;-80
2022/12/12 07:29:16;;;;;;;15.10;7.63;;;9.90;51.00;;;;;;5054291;28;20474;-80
2022/12/12 07:31:44;;;;;;;13.50;8.10;;;9.90;51.10;;;;;;5054747;28;20454;-80
2022/12/12 07:34:13;;;;;;;14.27;9.37;;;9.90;51.20;;;;;;5057323;28;20489;-81
2022/12/12 07:36:41;;;;;;;13.90;7.77;;;9.90;51.10;;;;;;5053767;28;20454;-79
2022/12/12 07:39:09;;;;;;;14.47;8.70;;;9.90;51.00;;;;;;5060117;28;20565;-80
2022/12/12 07:41:42;;;;;;;14.90;8.33;;;9.90;51.20;;;;;;5046523;28;20482;-80
2022/12/12 07:44:12;;;;;;;13.00;8.00;;;9.90;51.20;;;;;;5047028;28;20453;-80
2022/12/12 07:46:40;;;;;;;13.73;8.50;;;9.90;51.20;;;;;;5044049;28;20483;-80
2022/12/12 07:49:08;;;;;;;14.00;8.50;;;9.90;51.10;;;;;;5052954;28;20474;-80
2022/12/12 07:51:37;;;;;;;14.87;8.60;;;9.80;51.20;;;;;;5051066;28;20970;-80
2022/12/12 07:54:15;;;;;;;15.87;8.83;;;9.90;51.20;;;;;;5052421;28;20471;-81
2022/12/12 07:56:45;;;;;;;18.43;8.90;;;9.90;51.10;;;;;;5053116;28;20522;-79
2022/12/12 07:59:15;;;;;;;15.10;8.70;;;9.90;51.20;;;;;;5050454;28;20475;-80
2022/12/12 08:01:43;;;;;;;13.30;8.10;;;9.90;51.20;;;;;;5050751;28;20457;-79
2022/12/12 08:04:11;;;;;;;14.50;8.50;;;9.90;51.30;;;;;;5051643;28;20504;-80
2022/12/12 08:06:39;;;;;;;16.03;8.33;;;9.90;51.00;;;;;;5057191;28;20468;-79
2022/12/12 08:09:07;;;;;;;13.53;8.50;;;10.00;50.40;;;;;;5053311;28;20475;-80
2022/12/12 08:11:35;;;;;;;13.10;8.30;;;10.00;50.40;;;;;;5057584;28;20452;-80
2022/12/12 08:14:06;;;;;;;12.80;7.77;;;10.00;50.20;;;;;;5053620;28;20555;-80
2022/12/12 08:16:41;;;;;;;13.07;8.23;;;10.00;50.40;;;;;;5057834;28;20450;-81
2022/12/12 08:19:09;;;;;;;14.50;7.97;;;10.00;50.30;;;;;;5057420;28;20475;-81
2022/12/12 08:21:37;;;;;;;12.90;8.20;;;10.10;50.30;;;;;;5051731;28;20547;-81
2022/12/12 08:24:07;;;;;;;14.53;8.40;;;10.10;50.40;;;;;;5051656;28;20474;-79
2022/12/12 08:26:36;;;;;;;13.73;7.70;;;10.10;50.30;;;;;;5060481;28;20453;-80
2022/12/12 08:29:04;;;;;;;15.90;8.37;;;10.10;50.40;;;;;;5054143;28;20493;-79
2022/12/12 08:31:33;;;;;;;12.80;8.00;;;10.20;50.40;;;;;;5051459;28;20454;-81
2022/12/12 08:34:05;;;;;;;13.60;8.30;;;10.20;50.50;;;;;;5051848;28;20474;-80
2022/12/12 08:36:38;;;;;;;15.77;8.23;;;10.20;50.40;;;;;;5053680;28;20464;-80
2022/12/12 08:39:07;;;;;;;14.37;8.40;;;10.30;50.50;;;;;;5056313;28;20490;-80
2022/12/12 08:41:36;;;;;;;14.07;8.57;;;10.30;50.50;;;;;;5056242;28;20453;-80
2022/12/12 08:44:04;;;;;;;12.93;7.80;;;10.30;50.50;;;;;;5050471;28;20446;-81
2022/12/12 08:46:32;;;;;;;13.20;8.03;;;10.40;50.70;;;;;;5056624;28;20457;-81
2022/12/12 08:49:01;;;;;;;17.93;8.70;;;10.40;50.80;;;;;;5050796;28;20475;-80
2022/12/12 08:51:30;;;;;;;14.83;8.30;;;10.40;50.70;;;;;;5050220;28;20451;-82
2022/12/12 08:54:00;;;;;;;15.83;9.03;;;10.40;50.80;;;;;;5050410;28;20471;-80
2022/12/12 08:56:27;;;;;;;15.03;8.50;;;10.40;50.70;;;;;;5052735;28;20459;-80
2022/12/12 08:58:56;;;;;;;15.20;8.23;;;10.40;50.80;;;;;;5060108;28;20845;-80
2022/12/12 09:01:25;;;;;;;16.20;9.63;;;10.40;50.90;;;;;;5060307;28;21342;-80
2022/12/12 09:03:55;;;;;;;16.93;9.33;;;10.50;50.90;;;;;;5053967;28;20473;-79
2022/12/12 09:06:23;;;;;;;17.30;9.50;;;10.50;50.90;;;;;;5055555;28;20458;-81
2022/12/12 09:08:52;;;;;;;13.30;8.20;;;10.50;51.00;;;;;;5057428;28;20477;-80
2022/12/12 09:11:20;;;;;;;14.00;8.70;;;10.60;51.10;;;;;;5060887;28;20457;-81
2022/12/12 09:13:48;;;;;;;17.33;9.03;;;10.60;51.00;;;;;;5055883;28;20450;-80
2022/12/12 09:16:18;;;;;;;14.37;8.70;;;10.60;51.00;;;;;;5059718;28;20545;-81
2022/12/12 09:18:46;;;;;;;15.20;9.03;;;10.70;51.00;;;;;;5054028;28;20872;-80
2022/12/12 09:21:16;;;;;;;14.80;9.40;;;10.70;51.20;;;;;;5059672;28;20502;-82
2022/12/12 09:23:44;;;;;;;15.10;9.40;;;10.80;51.20;;;;;;5052916;28;20538;-82
2022/12/12 09:26:14;;;;;;;16.20;9.40;;;10.90;51.30;;;;;;5057681;28;20529;-80
2022/12/12 09:28:42;;;;;;;15.17;8.57;;;11.00;51.20;;;;;;5060280;28;20474;-81
2022/12/12 09:31:11;;;;;;;12.97;8.67;;;11.00;51.10;;;;;;5059066;28;20458;-80
2022/12/12 09:33:39;;;;;;;16.20;9.50;;;11.00;51.10;;;;;;5055886;28;20549;-80
2022/12/12 09:36:07;;;;;;;15.20;8.60;;;11.10;51.20;;;;;;5056990;28;20471;-80
2022/12/12 09:38:35;;;;;;;16.50;9.40;;;11.10;51.40;;;;;;5056194;28;20497;-81
2022/12/12 09:41:04;;;;;;;18.03;9.53;;;11.20;51.40;;;;;;5056822;28;20454;-80
2022/12/12 09:43:34;;;;;;;15.13;9.07;;;11.20;51.30;;;;;;5063358;28;20446;-80
2022/12/12 09:46:03;;;;;;;14.10;8.97;;;11.30;51.50;;;;;;5052607;28;20442;-80
2022/12/12 09:48:35;;;;;;;15.00;9.03;;;11.30;51.60;;;;;;5048572;28;20536;-81
2022/12/12 09:51:03;;;;;;;17.83;10.27;;;11.40;51.70;;;;;;5056433;28;20458;-81
2022/12/12 09:53:31;;;;;;;16.73;9.83;;;11.60;51.90;;;;;;5053596;28;20509;-80
2022/12/12 09:56:03;;;;;;;14.00;9.53;;;11.80;52.00;;;;;;5050501;28;20558;-80
2022/12/12 09:58:34;;;;;;;14.70;9.60;;;12.00;52.10;;;;;;5054440;28;20476;-80
2022/12/12 10:01:06;;;;;;;18.33;9.70;;;12.20;52.40;;;;;;5053946;28;20446;-80
2022/12/12 10:03:45;;;;;;;20.43;10.53;;;12.40;52.50;;;;;;5050835;28;20490;-80
2022/12/12 10:06:13;;;;;;;18.20;11.00;;;12.70;52.50;;;;;;5051490;28;20457;-81
2022/12/12 10:09:06;;;;;;;15.40;9.87;;;12.90;52.50;;;;;;5051324;28;20580;-81
2022/12/12 10:11:53;;;;;;;17.80;10.80;;;13.20;52.40;;;;;;5051238;28;20450;-82
2022/12/12 10:14:27;;;;;;;20.80;11.53;;;13.40;52.50;;;;;;5047799;28;20509;-81
2022/12/12 10:16:55;;;;;;;19.73;11.73;;;13.60;52.50;;;;;;5052297;28;20473;-80
2022/12/12 10:19:26;;;;;;;17.03;11.00;;;13.90;52.60;;;;;;5053042;28;20540;-80
2022/12/12 10:21:56;;;;;;;18.30;11.03;;;14.10;52.80;;;;;;5048995;28;20462;-80
2022/12/12 10:24:28;;;;;;;17.77;11.50;;;14.30;53.00;;;;;;5053939;28;20458;-79
2022/12/12 10:26:57;;;;;;;20.03;11.97;;;14.50;53.20;;;;;;5048827;28;20464;-80
2022/12/12 10:29:27;;;;;;;19.30;11.90;;;14.70;53.30;;;;;;5051846;28;20458;-81
2022/12/12 10:32:00;;;;;;;17.87;11.10;;;15.00;53.50;;;;;;5050777;28;20462;-80
2022/12/12 10:34:36;;;;;;;17.60;11.73;;;15.20;53.60;;;;;;5053073;28;20459;-80
2022/12/12 10:37:11;;;;;;;22.27;11.70;;;15.40;53.80;;;;;;5057355;28;20449;-81
2022/12/12 10:39:44;;;;;;;21.03;12.30;;;15.60;53.80;;;;;;5051405;28;20462;-79
2022/12/12 10:42:14;;;;;;;19.60;11.80;;;15.80;53.90;;;;;;5049921;28;20454;-79
2022/12/12 10:44:54;;;;;;;22.70;13.10;;;16.00;54.10;;;;;;5050503;28;20477;-80
2022/12/12 10:47:22;;;;;;;21.67;13.10;;;16.10;54.00;;;;;;5056005;28;20481;-80
2022/12/12 10:49:51;;;;;;;20.33;12.70;;;16.30;54.10;;;;;;5049690;28;20451;-79
2022/12/12 10:52:22;;;;;;;20.20;12.83;;;16.40;54.00;;;;;;5053030;28;20450;-79
2022/12/12 10:54:52;;;;;;;20.17;12.03;;;16.60;54.20;;;;;;5050384;28;20454;-79
2022/12/12 10:57:20;;;;;;;20.57;12.67;;;16.70;54.10;;;;;;5051401;28;20497;-79
2022/12/12 10:59:51;;;;;;;20.60;12.13;;;16.90;54.20;;;;;;5049748;28;20482;-80
2022/12/12 11:02:27;;;;;;;19.10;12.33;;;17.10;54.20;;;;;;5045241;28;20445;-80
2022/12/12 11:05:00;;;;;;;21.20;12.93;;;17.40;54.20;;;;;;5052224;28;20453;-79
2022/12/12 11:07:28;;;;;;;20.50;12.40;;;17.50;53.70;;;;;;5051471;28;20466;-79
2022/12/12 11:09:57;;;;;;;18.77;12.87;;;17.60;53.80;;;;;;5050960;28;20522;-79
2022/12/12 11:12:33;;;;;;;20.23;12.07;;;17.70;53.80;;;;;;5054495;28;20453;-79
2022/12/12 11:15:05;;;;;;;19.50;12.70;;;17.70;53.70;;;;;;5055089;28;20446;-79
2022/12/12 11:17:34;;;;;;;19.23;12.33;;;17.80;54.00;;;;;;5055469;28;20462;-80
2022/12/12 11:20:06;;;;;;;21.60;13.23;;;18.00;54.10;;;;;;5054132;28;20430;-80
2022/12/12 11:22:33;;;;;;;18.30;12.10;;;18.20;53.80;;;;;;5062143;28;21170;-80
2022/12/12 11:25:01;;;;;;;20.80;12.90;;;18.40;53.50;;;;;;5055780;28;20521;-79
2022/12/12 11:27:31;;;;;;;21.83;13.07;;;18.60;53.30;;;;;;5047094;28;20451;-81
2022/12/12 11:29:59;;;;;;;19.77;13.07;;;18.90;53.20;;;;;;5055378;28;20458;-81
2022/12/12 11:32:30;;;;;;;18.67;12.10;;;19.00;53.00;;;;;;5047594;28;20451;-80
2022/12/12 11:34:59;;;;;;;20.23;12.50;;;19.20;53.00;;;;;;5050968;28;20449;-80
2022/12/12 11:37:29;;;;;;;22.17;12.43;;;19.30;52.60;;;;;;5048085;28;20491;-80
2022/12/12 11:39:57;;;;;;;18.67;11.80;;;19.40;52.60;;;;;;5050317;28;20466;-81
2022/12/12 11:42:27;;;;;;;18.20;11.90;;;19.30;52.50;;;;;;5055822;28;20794;-80
2022/12/12 11:45:00;;;;;;;19.00;12.20;;;19.10;52.40;;;;;;5055480;28;20439;-80
2022/12/12 11:47:34;;;;;;;18.00;12.40;;;19.00;52.90;;;;;;5040787;28;20461;-80
2022/12/12 11:50:02;;;;;;;19.77;12.43;;;18.90;53.20;;;;;;5055852;28;20453;-80
2022/12/12 11:52:37;;;;;;;20.37;11.90;;;19.00;53.80;;;;;;5050606;28;20444;-81
2022/12/12 11:55:09;;;;;;;20.67;13.67;;;19.10;53.40;;;;;;5056328;28;20447;-80
2022/12/12 11:57:52;;;;;;;22.07;12.50;;;19.00;52.90;;;;;;5051837;28;20484;-80
2022/12/12 12:00:25;;;;;;;19.70;12.90;;;19.10;53.30;;;;;;5050052;28;20451;-80
2022/12/12 12:03:13;;;;;;;19.73;12.60;;;19.40;53.50;;;;;;5053282;28;20450;-81
2022/12/12 12:05:46;;;;;;;18.73;11.80;;;19.70;52.60;;;;;;5046907;28;20465;-81
2022/12/12 12:08:22;;;;;;;19.93;12.17;;;19.80;52.60;;;;;;5046630;28;20467;-80
2022/12/12 12:10:59;;;;;;;20.87;12.77;;;19.90;52.10;;;;;;5053504;28;20442;-80
2022/12/12 12:13:36;;;;;;;18.80;12.30;;;19.70;51.60;;;;;;5053597;28;20452;-80
2022/12/12 12:16:07;;;;;;;21.67;12.90;;;19.50;51.60;;;;;;5053004;28;20991;-80
2022/12/12 12:18:44;;;;;;;22.83;12.87;;;19.30;51.70;;;;;;5053763;28;20458;-80
2022/12/12 12:21:34;;;;;;;20.60;12.83;;;19.10;51.70;;;;;;5042791;28;20443;-80
2022/12/12 12:24:15;;;;;;;20.07;12.90;;;18.90;51.60;;;;;;5045172;28;20442;-80
2022/12/12 12:26:46;;;;;;;20.53;13.17;;;18.70;51.70;;;;;;5054082;28;20442;-81
2022/12/12 12:29:34;;;;;;;18.07;11.80;;;18.50;51.80;;;;;;5054387;28;20474;-79
2022/12/12 12:32:06;;;;;;;19.80;12.30;;;18.40;51.90;;;;;;5055414;28;20838;-79
2022/12/12 12:34:39;;;;;;;22.63;12.20;;;18.30;52.00;;;;;;5055233;28;20434;-80
2022/12/12 12:37:13;;;;;;;21.87;13.50;;;18.20;52.10;;;;;;5055143;28;20492;-78
2022/12/12 12:39:56;;;;;;;22.20;12.87;;;18.10;52.10;;;;;;5056052;28;20452;-80
2022/12/12 12:42:33;;;;;;;22.20;13.27;;;18.00;52.10;;;;;;5048397;28;20962;-80
2022/12/12 12:45:05;;;;;;;17.80;12.00;;;17.90;52.00;;;;;;5057149;28;20453;-80
2022/12/12 12:47:36;;;;;;;22.17;12.70;;;17.80;52.00;;;;;;5052313;28;20465;-80
2022/12/12 12:50:13;;;;;;;21.90;12.73;;;17.70;52.00;;;;;;5049139;28;20442;-79
2022/12/12 12:52:45;;;;;;;23.13;13.67;;;17.70;52.20;;;;;;5056663;28;20477;-80
2022/12/12 12:55:14;;;;;;;18.30;11.57;;;17.70;52.10;;;;;;5055280;28;20466;-79
2022/12/12 12:57:43;;;;;;;18.73;11.57;;;17.70;52.10;;;;;;5054424;28;20481;-80
2022/12/12 13:00:15;;;;;;;20.07;11.77;;;17.70;52.00;;;;;;5049789;28;20443;-80
2022/12/12 13:02:48;;;;;;;19.87;13.20;;;17.60;51.80;;;;;;5052692;28;20500;-79
2022/12/12 13:05:20;;;;;;;19.33;12.80;;;17.60;51.90;;;;;;5054738;28;20447;-79